createdAt,value
2023-01-11T00:01:06.598Z,0.98
2023-01-11T00:03:31.095Z,1.42
2023-01-11T00:05:58.493Z,0.98
2023-01-11T00:08:24.413Z,1.08
2023-01-11T00:10:47.835Z,1.35
2023-01-11T00:13:11.088Z,1.83
2023-01-11T00:15:36.307Z,2.38
2023-01-11T00:17:59.790Z,1.88
2023-01-11T00:20:23.124Z,1.98
2023-01-11T00:22:46.469Z,1.80
2023-01-11T00:25:11.597Z,1.48
2023-01-11T00:27:35.235Z,2.28
2023-01-11T00:29:58.509Z,2.03
2023-01-11T00:32:21.780Z,0.93
2023-01-11T00:34:45.028Z,1.90
2023-01-11T00:37:08.255Z,3.55
2023-01-11T00:39:31.718Z,2.13
2023-01-11T00:42:13.641Z,2.63
2023-01-11T00:44:54.451Z,2.08
2023-01-11T00:47:36.149Z,3.55
2023-01-11T00:49:59.563Z,5.18
2023-01-11T00:52:22.914Z,6.05
2023-01-11T00:54:46.186Z,6.78
2023-01-11T00:57:11.597Z,7.72
2023-01-11T00:59:35.048Z,7.03
2023-01-11T01:01:58.328Z,7.07
2023-01-11T01:04:21.655Z,6.72
2023-01-11T01:06:45.083Z,4.70
2023-01-11T01:09:08.397Z,5.50
2023-01-11T01:11:31.647Z,3.83
2023-01-11T01:14:13.834Z,5.85
2023-01-11T01:16:37.673Z,3.67
2023-01-11T01:19:01.232Z,2.80
2023-01-11T01:21:24.921Z,4.13
2023-01-11T01:23:48.145Z,2.85
2023-01-11T01:26:11.450Z,2.97
2023-01-11T01:28:34.856Z,3.35
2023-01-11T01:30:59.692Z,2.15
2023-01-11T01:33:23.167Z,2.83
2023-01-11T01:35:46.727Z,4.75
2023-01-11T01:38:09.977Z,5.18
2023-01-11T01:40:33.295Z,3.83
2023-01-11T01:42:56.588Z,3.00
2023-01-11T01:45:25.536Z,3.60
2023-01-11T01:47:54.956Z,2.22
2023-01-11T01:50:24.434Z,1.85
2023-01-11T01:52:51.401Z,2.13
2023-01-11T01:55:24.492Z,1.15
2023-01-11T01:57:48.251Z,0.80
2023-01-11T02:00:13.168Z,4.40
2023-01-11T02:02:39.467Z,1.25
2023-01-11T02:05:04.808Z,1.70
2023-01-11T02:07:32.949Z,1.55
2023-01-11T02:10:02.278Z,2.22
2023-01-11T02:12:30.069Z,2.35
2023-01-11T02:14:55.548Z,2.55
2023-01-11T02:17:18.977Z,4.93
2023-01-11T02:19:59.015Z,5.60
2023-01-11T02:23:12.684Z,3.75
2023-01-11T02:26:38.717Z,2.00
2023-01-11T02:29:11.993Z,3.53
2023-01-11T02:31:41.308Z,1.85
2023-01-11T02:34:21.883Z,1.55
2023-01-11T02:37:01.936Z,1.85
2023-01-11T02:39:35.931Z,2.15
2023-01-11T02:42:26.357Z,2.67
2023-01-11T02:45:03.472Z,2.50
2023-01-11T02:47:34.299Z,2.83
2023-01-11T02:50:05.247Z,1.15
2023-01-11T02:52:36.682Z,1.63
2023-01-11T02:55:02.364Z,2.70
2023-01-11T02:57:29.396Z,1.30
2023-01-11T02:59:57.888Z,0.75
2023-01-11T03:02:21.242Z,1.65
2023-01-11T03:04:45.241Z,1.17
2023-01-11T03:07:33.604Z,1.77
2023-01-11T03:10:12.422Z,2.00
2023-01-11T03:12:57.641Z,1.95
2023-01-11T03:15:48.473Z,1.30
2023-01-11T03:18:29.239Z,0.63
2023-01-11T03:21:00.871Z,2.13
2023-01-11T03:23:33.327Z,0.82
2023-01-11T03:26:01.919Z,0.68
2023-01-11T03:28:36.801Z,0.55
2023-01-11T03:31:06.723Z,1.85
2023-01-11T03:33:38.837Z,1.92
2023-01-11T03:36:12.435Z,1.92
2023-01-11T03:38:42.552Z,2.75
2023-01-11T03:41:10.440Z,1.27
2023-01-11T03:43:37.989Z,2.10
2023-01-11T03:46:07.918Z,1.30
2023-01-11T03:48:37.508Z,1.00
2023-01-11T03:51:02.847Z,0.50
2023-01-11T03:53:28.935Z,0.50
2023-01-11T03:55:56.915Z,1.20
2023-01-11T03:58:20.259Z,1.75
2023-01-11T04:00:43.991Z,2.30
2023-01-11T04:03:09.707Z,2.58
2023-01-11T04:05:34.044Z,3.00
2023-01-11T04:07:57.462Z,2.22
2023-01-11T04:10:20.761Z,4.53
2023-01-11T04:12:44.034Z,2.50
2023-01-11T04:15:09.489Z,0.57
2023-01-11T04:17:32.924Z,1.35
2023-01-11T04:19:57.574Z,1.15
2023-01-11T04:22:20.915Z,2.22
2023-01-11T04:24:44.181Z,1.17
2023-01-11T04:27:07.541Z,1.42
2023-01-11T04:29:30.822Z,1.33
2023-01-11T04:31:54.101Z,0.85
2023-01-11T04:34:17.610Z,1.70
2023-01-11T04:36:42.897Z,0.40
2023-01-11T04:39:10.604Z,2.95
2023-01-11T04:41:51.427Z,1.63
2023-01-11T04:44:14.884Z,0.75
2023-01-11T04:46:38.260Z,0.63
2023-01-11T04:49:01.708Z,2.70
2023-01-11T04:51:25.106Z,0.65
2023-01-11T04:53:50.536Z,0.77
2023-01-11T04:56:13.802Z,1.23
2023-01-11T04:58:38.277Z,0.68
2023-01-11T05:01:02.095Z,1.05
2023-01-11T05:03:25.548Z,1.55
2023-01-11T05:05:57.163Z,1.45
2023-01-11T05:08:20.471Z,2.22
2023-01-11T05:10:45.151Z,2.17
2023-01-11T05:13:08.505Z,4.15
2023-01-11T05:15:31.808Z,0.40
2023-01-11T05:17:55.324Z,1.25
2023-01-11T05:20:18.906Z,0.52
2023-01-11T05:22:42.156Z,1.63
2023-01-11T05:25:06.768Z,0.75
2023-01-11T05:27:31.389Z,1.95
2023-01-11T05:29:55.097Z,0.52
2023-01-11T05:32:18.328Z,0.85
2023-01-11T05:34:41.642Z,0.90
2023-01-11T05:37:04.967Z,6.68
2023-01-11T05:39:28.454Z,1.42
2023-01-11T05:41:51.720Z,0.40
2023-01-11T05:44:33.960Z,1.75
2023-01-11T05:46:57.399Z,0.93
2023-01-11T05:49:20.868Z,1.58
2023-01-11T05:51:45.103Z,1.00
2023-01-11T05:54:12.757Z,0.52
2023-01-11T05:56:36.171Z,0.77
2023-01-11T05:58:59.681Z,1.45
2023-01-11T06:01:26.407Z,2.65
2023-01-11T06:03:49.962Z,1.58
2023-01-11T06:06:13.399Z,0.90
2023-01-11T06:08:36.644Z,1.13
2023-01-11T06:11:00.525Z,3.35
2023-01-11T06:13:30.372Z,0.65
2023-01-11T06:15:53.999Z,0.68
2023-01-11T06:18:18.779Z,1.55
2023-01-11T06:20:42.176Z,1.42
2023-01-11T06:23:05.617Z,0.82
2023-01-11T06:25:30.329Z,0.65
2023-01-11T06:27:54.891Z,1.23
2023-01-11T06:30:20.379Z,0.98
2023-01-11T06:32:43.664Z,2.05
2023-01-11T06:35:09.437Z,1.10
2023-01-11T06:37:32.768Z,0.80
2023-01-11T06:39:56.181Z,1.30
2023-01-11T06:42:19.494Z,0.50
2023-01-11T06:44:42.743Z,0.50
2023-01-11T06:47:06.191Z,1.65
2023-01-11T06:49:29.448Z,1.88
2023-01-11T06:51:54.100Z,0.70
2023-01-11T06:54:21.908Z,1.05
2023-01-11T06:56:45.225Z,2.15
2023-01-11T06:59:08.625Z,1.42
2023-01-11T07:01:32.391Z,0.60
2023-01-11T07:03:55.858Z,2.63
2023-01-11T07:06:19.231Z,1.60
2023-01-11T07:08:43.803Z,0.50
2023-01-11T07:11:07.398Z,0.93
2023-01-11T07:13:30.701Z,1.05
2023-01-11T07:15:54.221Z,1.00
2023-01-11T07:18:18.490Z,0.70
2023-01-11T07:20:42.105Z,1.17
2023-01-11T07:23:05.446Z,2.28
2023-01-11T07:25:31.370Z,1.30
2023-01-11T07:27:58.850Z,1.40
2023-01-11T07:30:22.422Z,1.85
2023-01-11T07:32:45.659Z,3.03
2023-01-11T07:35:10.303Z,2.22
2023-01-11T07:37:34.181Z,2.47
2023-01-11T07:39:57.490Z,2.20
2023-01-11T07:42:54.179Z,3.45
2023-01-11T07:45:17.551Z,4.63
2023-01-11T07:47:41.451Z,2.65
2023-01-11T07:50:06.058Z,3.42
2023-01-11T07:52:29.312Z,2.85
2023-01-11T07:54:52.628Z,3.85
2023-01-11T07:57:15.836Z,3.65
2023-01-11T07:59:40.506Z,3.22
2023-01-11T08:02:03.866Z,2.72
2023-01-11T08:04:27.548Z,5.00
2023-01-11T08:06:50.773Z,3.88
2023-01-11T08:09:14.272Z,5.32
2023-01-11T08:11:55.417Z,6.18
2023-01-11T08:14:36.111Z,4.53
2023-01-11T08:17:00.887Z,6.13
2023-01-11T08:19:24.276Z,6.35
2023-01-11T08:21:47.656Z,5.88
2023-01-11T08:24:11.187Z,4.03
2023-01-11T08:26:34.490Z,9.77
2023-01-11T08:28:57.867Z,6.15
2023-01-11T08:31:21.447Z,9.63
2023-01-11T08:33:46.336Z,9.57
2023-01-11T08:36:12.489Z,7.85
2023-01-11T08:38:36.176Z,6.00
2023-01-11T08:40:59.519Z,11.50
2023-01-11T08:43:22.725Z,10.20
2023-01-11T08:45:46.070Z,10.48
2023-01-11T08:48:09.438Z,9.35
2023-01-11T08:50:34.088Z,13.40
2023-01-11T08:52:57.405Z,11.38
2023-01-11T08:55:21.112Z,14.10
2023-01-11T08:57:44.414Z,16.30
2023-01-11T09:00:10.308Z,12.57
2023-01-11T09:02:33.793Z,16.73
2023-01-11T09:04:57.272Z,14.20
2023-01-11T09:07:22.010Z,15.20
2023-01-11T09:09:45.272Z,14.88
2023-01-11T09:12:08.912Z,21.35
2023-01-11T09:14:32.253Z,18.92
2023-01-11T09:16:56.362Z,14.65
2023-01-11T09:19:19.899Z,15.02
2023-01-11T09:21:43.346Z,16.10
2023-01-11T09:24:08.799Z,21.20
2023-01-11T09:26:32.380Z,23.27
2023-01-11T09:28:55.658Z,24.80
2023-01-11T09:31:19.177Z,28.70
2023-01-11T09:33:42.534Z,23.38
2023-01-11T09:36:06.569Z,16.67
2023-01-11T09:38:30.925Z,14.30
2023-01-11T09:41:04.493Z,18.60
2023-01-11T09:43:30.333Z,23.90
2023-01-11T09:45:56.020Z,16.85
2023-01-11T09:48:28.794Z,20.77
2023-01-11T09:50:52.217Z,20.80
2023-01-11T09:53:27.235Z,19.63
2023-01-11T09:55:54.161Z,14.13
2023-01-11T09:58:43.024Z,20.25
2023-01-11T10:01:14.714Z,17.90
2023-01-11T10:04:41.750Z,19.25
2023-01-11T10:07:22.958Z,19.70
2023-01-11T10:18:27.916Z,19.08
2023-01-11T10:19:31.503Z,19.50
2023-01-11T10:21:54.717Z,25.45
2023-01-11T10:24:25.811Z,19.77
2023-01-11T10:26:52.018Z,15.80
2023-01-11T10:29:39.807Z,19.10
2023-01-11T10:32:18.752Z,22.58
2023-01-11T10:35:13.729Z,19.15
2023-01-11T10:37:59.664Z,17.45
2023-01-11T10:40:40.022Z,14.20
2023-01-11T10:43:14.127Z,17.98
2023-01-11T10:45:43.450Z,19.90
2023-01-11T10:48:16.463Z,18.98
2023-01-11T10:50:48.182Z,27.67
2023-01-11T10:53:20.600Z,17.35
2023-01-11T10:55:52.176Z,22.05
2023-01-11T10:58:37.985Z,19.58
2023-01-11T11:01:17.028Z,17.83
2023-01-11T11:03:54.982Z,16.27
2023-01-11T11:06:32.807Z,20.17
2023-01-11T11:09:05.965Z,17.95
2023-01-11T11:11:37.969Z,14.27
2023-01-11T11:14:10.403Z,20.17
2023-01-11T11:17:00.042Z,15.20
2023-01-11T11:19:31.495Z,21.13
2023-01-11T11:21:54.741Z,18.27
2023-01-11T11:24:27.782Z,18.85
2023-01-11T11:27:17.576Z,17.50
2023-01-11T11:29:50.480Z,16.02
2023-01-11T11:32:24.307Z,20.73
2023-01-11T11:34:50.419Z,17.52
2023-01-11T11:37:26.601Z,16.48
2023-01-11T11:39:52.132Z,16.35
2023-01-11T11:42:18.369Z,14.25
2023-01-11T11:44:41.703Z,14.48
2023-01-11T11:47:07.546Z,13.20
2023-01-11T11:49:32.690Z,16.23
2023-01-11T11:51:58.347Z,14.73
2023-01-11T11:54:28.001Z,19.98
2023-01-11T11:56:51.700Z,12.30
2023-01-11T11:59:19.444Z,14.65
2023-01-11T12:01:47.142Z,14.70
2023-01-11T12:04:16.583Z,15.65
2023-01-11T12:06:41.654Z,12.48
2023-01-11T12:09:13.920Z,15.45
2023-01-11T12:11:42.157Z,12.82
2023-01-11T12:14:19.786Z,17.02
2023-01-11T12:16:45.428Z,13.55
2023-01-11T12:19:29.266Z,15.95
2023-01-11T12:21:53.001Z,15.52
2023-01-11T12:24:19.681Z,15.90
2023-01-11T12:26:59.375Z,17.20
2023-01-11T12:30:08.689Z,17.60
2023-01-11T12:33:14.887Z,18.58
2023-01-11T12:35:51.552Z,19.63
2023-01-11T12:38:44.072Z,15.98
2023-01-11T12:41:50.182Z,18.65
2023-01-11T12:44:21.568Z,14.00
2023-01-11T12:46:59.411Z,23.58
2023-01-11T12:49:35.946Z,23.65
2023-01-11T12:52:27.710Z,15.30
2023-01-11T12:55:21.638Z,17.00
2023-01-11T12:58:01.027Z,19.27
2023-01-11T13:00:39.906Z,17.25
2023-01-11T13:03:34.201Z,17.30
2023-01-11T13:06:08.153Z,17.02
2023-01-11T13:08:48.919Z,15.48
2023-01-11T13:11:35.912Z,12.30
2023-01-11T13:14:26.968Z,21.02
2023-01-11T13:17:01.753Z,18.23
2023-01-11T13:19:32.772Z,17.67
2023-01-11T13:21:59.385Z,20.50
2023-01-11T13:24:29.890Z,23.08
2023-01-11T13:26:56.258Z,25.98
2023-01-11T13:29:28.904Z,13.30
2023-01-11T13:31:54.337Z,12.15
2023-01-11T13:34:26.047Z,14.25
2023-01-11T13:36:55.715Z,17.23
2023-01-11T13:39:28.371Z,14.52
2023-01-11T13:41:56.533Z,14.10
2023-01-11T13:44:26.196Z,16.73
2023-01-11T13:47:01.733Z,12.93
2023-01-11T13:49:49.778Z,21.27
2023-01-11T13:52:15.432Z,12.82
2023-01-11T13:54:49.137Z,20.70
2023-01-11T13:57:23.610Z,17.95
2023-01-11T13:59:54.832Z,17.67
2023-01-11T14:02:25.495Z,17.38
2023-01-11T14:04:55.341Z,20.60
2023-01-11T14:07:36.591Z,16.40
2023-01-11T14:10:24.786Z,14.63
2023-01-11T14:13:06.668Z,15.27
2023-01-11T14:15:38.038Z,12.90
2023-01-11T14:18:19.623Z,17.77
2023-01-11T14:20:58.158Z,16.60
2023-01-11T14:23:25.198Z,15.80
2023-01-11T14:26:18.771Z,14.93
2023-01-11T14:29:00.083Z,16.40
2023-01-11T14:32:11.110Z,22.05
2023-01-11T14:35:03.952Z,20.50
2023-01-11T14:38:13.487Z,21.88
2023-01-11T14:40:57.055Z,16.90
2023-01-11T14:43:57.179Z,16.60
2023-01-11T14:46:51.868Z,15.75
2023-01-11T14:49:32.796Z,13.63
2023-01-11T14:52:00.140Z,17.58
2023-01-11T14:54:28.136Z,18.17
2023-01-11T14:56:55.675Z,17.02
2023-01-11T14:59:43.036Z,13.13
2023-01-11T15:02:27.601Z,19.15
2023-01-11T15:05:36.324Z,16.35
2023-01-11T15:08:21.020Z,21.35
2023-01-11T15:10:57.813Z,13.07
2023-01-11T15:13:25.484Z,16.67
2023-01-11T15:16:07.065Z,17.05
2023-01-11T15:18:31.646Z,14.77
2023-01-11T15:20:59.102Z,17.77
2023-01-11T15:23:23.381Z,19.38
2023-01-11T15:25:49.346Z,18.20
2023-01-11T15:28:46.365Z,15.75
2023-01-11T15:31:39.200Z,16.42
2023-01-11T15:34:06.456Z,15.48
2023-01-11T15:37:09.231Z,19.30
2023-01-11T15:39:40.108Z,20.02
2023-01-11T15:42:29.609Z,16.33
2023-01-11T15:45:25.580Z,14.65
2023-01-11T15:48:12.384Z,17.05
2023-01-11T15:51:15.545Z,22.65
2023-01-11T15:54:27.733Z,22.83
2023-01-11T15:57:39.807Z,16.33
2023-01-11T16:00:41.611Z,16.35
2023-01-11T16:03:29.403Z,15.15
2023-01-11T16:06:03.959Z,20.35
2023-01-11T16:08:33.872Z,19.83
2023-01-11T16:11:20.459Z,20.48
2023-01-11T16:14:04.093Z,18.63
2023-01-11T16:16:32.004Z,18.60
2023-01-11T16:19:00.130Z,17.65
2023-01-11T16:21:34.625Z,20.17
2023-01-11T16:23:58.323Z,13.43
2023-01-11T16:26:23.566Z,18.42
2023-01-11T16:28:52.797Z,19.65
2023-01-11T16:31:16.168Z,16.95
2023-01-11T16:33:39.458Z,19.05
2023-01-11T16:36:14.160Z,15.32
2023-01-11T16:38:48.049Z,17.23
2023-01-11T16:41:15.403Z,15.13
2023-01-11T16:43:49.012Z,11.98
2023-01-11T16:47:07.030Z,14.00
2023-01-11T16:49:30.489Z,13.18
2023-01-11T16:51:54.459Z,12.75
2023-01-11T16:54:24.981Z,10.10
2023-01-11T16:56:50.363Z,14.15
2023-01-11T16:59:26.363Z,10.35
2023-01-11T17:01:52.615Z,14.40
2023-01-11T17:04:29.328Z,13.43
2023-01-11T17:06:52.719Z,14.23
2023-01-11T17:09:22.069Z,9.40
2023-01-11T17:11:48.630Z,15.80
2023-01-11T17:14:53.518Z,8.88
2023-01-11T17:17:17.603Z,19.50
2023-01-11T17:19:46.229Z,13.10
2023-01-11T17:22:18.638Z,11.27
2023-01-11T17:24:50.873Z,10.90
2023-01-11T17:27:22.124Z,12.02
2023-01-11T17:29:48.251Z,11.68
2023-01-11T17:32:19.878Z,13.50
2023-01-11T17:34:44.053Z,15.13
2023-01-11T17:37:10.880Z,15.32
2023-01-11T17:39:36.813Z,14.98
2023-01-11T17:42:20.125Z,12.05
2023-01-11T17:45:03.398Z,13.23
2023-01-11T17:47:27.224Z,12.85
2023-01-11T17:49:52.558Z,10.55
2023-01-11T17:52:23.219Z,12.30
2023-01-11T17:54:46.726Z,15.57
2023-01-11T17:57:11.717Z,14.68
2023-01-11T17:59:35.114Z,14.30
2023-01-11T18:02:03.922Z,11.57
2023-01-11T18:04:29.103Z,19.27
2023-01-11T18:06:56.547Z,11.10
2023-01-11T18:09:26.592Z,16.23
2023-01-11T18:11:51.792Z,13.25
2023-01-11T18:14:21.187Z,19.63
2023-01-11T18:17:00.290Z,15.70
2023-01-11T18:19:32.410Z,17.23
2023-01-11T18:21:56.371Z,10.38
2023-01-11T18:24:34.814Z,14.05
2023-01-11T18:27:19.564Z,13.35
2023-01-11T18:29:53.104Z,10.90
2023-01-11T18:32:18.649Z,18.60
2023-01-11T18:34:44.144Z,15.70
2023-01-11T18:37:07.714Z,13.38
2023-01-11T18:39:31.027Z,11.07
2023-01-11T18:42:10.859Z,15.88
2023-01-11T18:44:35.190Z,13.23
2023-01-11T18:46:58.413Z,13.00
2023-01-11T18:49:23.657Z,13.02
2023-01-11T18:51:46.888Z,14.70
2023-01-11T18:54:16.364Z,16.88
2023-01-11T18:56:39.793Z,11.80
2023-01-11T18:59:03.388Z,14.60
2023-01-11T19:01:26.809Z,10.73
2023-01-11T19:03:50.429Z,14.98
2023-01-11T19:06:15.933Z,15.60
2023-01-11T19:08:39.173Z,17.90
2023-01-11T19:11:03.999Z,22.13
2023-01-11T19:13:27.392Z,17.13
2023-01-11T19:15:51.796Z,13.05
2023-01-11T19:18:15.943Z,13.25
2023-01-11T19:20:40.831Z,14.85
2023-01-11T19:23:05.529Z,13.63
2023-01-11T19:25:29.077Z,16.80
2023-01-11T19:27:54.813Z,16.25
2023-01-11T19:30:19.065Z,18.63
2023-01-11T19:32:42.337Z,13.13
2023-01-11T19:35:08.225Z,16.23
2023-01-11T19:37:32.454Z,10.52
2023-01-11T19:39:57.396Z,13.80
2023-01-11T19:42:21.106Z,16.58
2023-01-11T19:44:44.478Z,14.00
2023-01-11T19:47:12.748Z,14.80
2023-01-11T19:49:36.520Z,16.30
2023-01-11T19:52:00.609Z,14.30
2023-01-11T19:54:25.075Z,16.48
2023-01-11T19:56:50.110Z,16.13
2023-01-11T19:59:13.445Z,17.08
2023-01-11T20:01:36.776Z,10.85
2023-01-11T20:04:00.773Z,19.33
2023-01-11T20:06:24.148Z,17.75
2023-01-11T20:08:47.548Z,13.80
2023-01-11T20:11:14.297Z,15.25
2023-01-11T20:13:39.112Z,17.48
2023-01-11T20:16:07.301Z,12.52
2023-01-11T20:18:30.701Z,13.00
2023-01-11T20:20:57.040Z,14.88
2023-01-11T20:23:20.459Z,18.98
2023-01-11T20:25:43.823Z,15.82
2023-01-11T20:28:07.140Z,13.05
2023-01-11T20:30:31.746Z,14.52
2023-01-11T20:32:55.079Z,17.92
2023-01-11T20:35:18.636Z,15.57
2023-01-11T20:37:41.946Z,16.00
2023-01-11T20:40:07.031Z,10.82
2023-01-11T20:42:31.664Z,16.88
2023-01-11T20:44:55.174Z,13.63
2023-01-11T20:47:19.938Z,11.98
2023-01-11T20:49:43.372Z,13.25
2023-01-11T20:52:07.132Z,17.42
2023-01-11T20:54:30.514Z,20.15
2023-01-11T20:56:54.059Z,13.40
2023-01-11T20:59:20.097Z,15.88
2023-01-11T21:01:44.198Z,19.35
2023-01-11T21:04:11.533Z,16.45
2023-01-11T21:06:37.501Z,17.15
2023-01-11T21:09:02.981Z,14.77
2023-01-11T21:11:27.074Z,19.85
2023-01-11T21:13:53.545Z,16.88
2023-01-11T21:16:17.974Z,17.60
2023-01-11T21:18:43.793Z,14.27
2023-01-11T21:21:14.114Z,14.68
2023-01-11T21:23:37.395Z,17.52
2023-01-11T21:26:00.622Z,14.63
2023-01-11T21:28:24.084Z,16.27
2023-01-11T21:30:47.342Z,15.73
2023-01-11T21:33:10.558Z,16.80
2023-01-11T21:35:35.348Z,15.38
2023-01-11T21:38:00.003Z,14.35
2023-01-11T21:40:23.252Z,11.13
2023-01-11T21:42:46.824Z,12.85
2023-01-11T21:45:12.085Z,12.70
2023-01-11T21:47:35.463Z,11.07
2023-01-11T21:49:59.561Z,15.30
2023-01-11T21:52:22.843Z,16.23
2023-01-11T21:54:48.405Z,14.20
2023-01-11T21:57:11.649Z,15.88
2023-01-11T21:59:35.769Z,15.50
2023-01-11T22:01:59.106Z,19.60
2023-01-11T22:04:22.852Z,16.90
2023-01-11T22:06:51.437Z,15.75
2023-01-11T22:09:15.396Z,11.90
2023-01-11T22:11:40.664Z,16.23
2023-01-11T22:14:08.450Z,15.63
2023-01-11T22:16:33.661Z,17.65
2023-01-11T22:18:57.003Z,13.43
2023-01-11T22:21:21.569Z,16.25
2023-01-11T22:23:45.795Z,18.02
2023-01-11T22:26:12.223Z,11.18
2023-01-11T22:28:57.201Z,12.02
2023-01-11T22:31:20.686Z,14.80
2023-01-11T22:33:44.054Z,14.35
2023-01-11T22:36:09.409Z,13.57
2023-01-11T22:38:33.746Z,20.13
2023-01-11T22:41:01.129Z,19.58
2023-01-11T22:43:24.478Z,18.25
2023-01-11T22:45:58.617Z,16.65
2023-01-11T22:48:21.959Z,20.83
2023-01-11T22:50:45.177Z,15.27
2023-01-11T22:53:08.425Z,22.55
2023-01-11T22:55:34.241Z,14.98
2023-01-11T22:57:58.140Z,20.23
2023-01-11T23:00:22.189Z,15.88
2023-01-11T23:02:47.239Z,15.63
2023-01-11T23:05:10.780Z,15.82
2023-01-11T23:07:34.508Z,14.05
2023-01-11T23:09:57.863Z,19.48
2023-01-11T23:12:50.226Z,16.83
2023-01-11T23:15:13.947Z,16.48
2023-01-11T23:17:37.405Z,22.80
2023-01-11T23:20:02.136Z,13.93
2023-01-11T23:22:25.354Z,19.95
2023-01-11T23:24:48.751Z,16.15
2023-01-11T23:27:12.047Z,18.52
2023-01-11T23:29:35.580Z,16.40
2023-01-11T23:31:58.958Z,18.30
2023-01-11T23:34:22.277Z,18.42
2023-01-11T23:36:47.005Z,22.75
2023-01-11T23:39:14.283Z,20.55
2023-01-11T23:41:55.472Z,16.63
2023-01-11T23:44:19.743Z,18.08
2023-01-11T23:47:00.980Z,17.92
2023-01-11T23:49:25.191Z,16.30
2023-01-11T23:51:50.253Z,17.67
2023-01-11T23:54:14.397Z,16.73
2023-01-11T23:56:37.971Z,15.68
2023-01-11T23:59:02.035Z,15.80
